Terminal Aerodrome Forecast
Issued by NWS

Home | Current Version | Previous Version | Text Only | Print | Product List | Glossary On
Versions: 1 2 3 4 5 6 7 8 9 10 11 12 13 14 15 16 17 18
000
FTUS43 KGRB 011100
TAFATW
TAF
KATW 011139Z 0112/0212 34007KT P6SM FEW022 SCT035
     FM011500 01005KT P6SM SCT025 SCT040
     FM012300 00000KT P6SM SKC
     FM020800 18004KT P6SM BKN150=

USA.gov is the U.S. government's official web portal to all federal, state and local government web resources and services.